Time;durP1;ratioP1;P1;durP2;ratioP2;P2;SDS_P1;SDS_P2;PMS_P1;PMS_P2;Temp;Humidity;BMP_temperature;BMP_pressure;BME280_temperature;BME280_humidity;BME280_pressure;Samples;Min_cycle;Max_cycle;Signal;HPM_P1;HPM_P2
2023/04/05 00:00:25;;;;;;;7.70;4.00;;;;;;;;;;4895832;29;20622;-94
2023/04/05 00:02:53;;;;;;;17.33;4.25;;;;;;;;;;4897505;29;20026;-96
2023/04/05 00:05:29;;;;;;;9.75;4.43;;;;;;;;;;4898132;29;20092;-95
2023/04/05 00:07:55;;;;;;;;;;;;;;;;;;4894583;29;20032;-95
2023/04/05 00:10:21;;;;;;;10.57;3.55;;;;;;;;;;4896973;29;19982;-95
2023/04/05 00:12:47;;;;;;;6.82;3.35;;;;;;;;;;4887101;29;20078;-94
2023/04/05 00:15:13;;;;;;;7.70;3.70;;;;;;;;;;4896700;29;20076;-94
2023/04/05 00:17:39;;;;;;;14.05;4.10;;;;;;;;;;4885799;29;20066;-93
2023/04/05 00:20:06;;;;;;;11.48;4.55;;;;;;;;;;4886866;29;20047;-95
2023/04/05 00:22:35;;;;;;;11.13;4.13;;;;;;;;;;4884881;29;20051;-94
2023/04/05 00:28:00;;;;;;;10.38;4.55;;;;;;;;;;4901681;29;20037;-96
2023/04/05 00:30:27;;;;;;;9.30;4.20;;;;;;;;;;4882932;29;20684;-95
2023/04/05 00:33:01;;;;;;;9.68;4.68;;;;;;;;;;4885115;29;20045;-95
2023/04/05 00:35:28;;;;;;;11.90;4.20;;;;;;;;;;4899255;29;20036;-95
2023/04/05 00:37:58;;;;;;;10.27;3.65;;;;;;;;;;4897157;29;20036;-94
2023/04/05 00:40:36;;;;;;;10.02;4.13;;;;;;;;;;4896914;29;20036;-95
2023/04/05 00:43:02;;;;;;;9.82;3.60;;;;;;;;;;4911692;29;20050;-94
2023/04/05 00:45:29;;;;;;;9.93;3.88;;;;;;;;;;4896534;29;20025;-95
2023/04/05 00:47:55;;;;;;;12.90;4.47;;;;;;;;;;4902342;29;20044;-95
2023/04/05 00:50:22;;;;;;;12.02;3.67;;;;;;;;;;4888617;29;20043;-94
2023/04/05 00:52:51;;;;;;;10.20;3.88;;;;;;;;;;4884308;29;20033;-94
2023/04/05 00:55:17;;;;;;;8.55;3.28;;;;;;;;;;4886571;29;20056;-94
2023/04/05 00:57:44;;;;;;;9.95;4.05;;;;;;;;;;4887772;29;20093;-94
2023/04/05 01:00:29;;;;;;;18.77;5.22;;;;;;;;;;4885827;29;20056;-94
2023/04/05 01:03:00;;;;;;;12.98;4.13;;;;;;;;;;4901640;29;20065;-94
2023/04/05 01:05:39;;;;;;;10.30;4.35;;;;;;;;;;4897829;29;20092;-95
2023/04/05 01:08:26;;;;;;;10.13;4.55;;;;;;;;;;4888229;29;20104;-94
2023/04/05 01:11:05;;;;;;;12.00;4.50;;;;;;;;;;4914073;29;20417;-95
2023/04/05 01:13:36;;;;;;;12.50;4.82;;;;;;;;;;4902598;29;20037;-95
2023/04/05 01:16:02;;;;;;;16.75;4.32;;;;;;;;;;4889122;29;20069;-95
2023/04/05 01:18:29;;;;;;;9.68;4.25;;;;;;;;;;4882705;29;20497;-94
2023/04/05 01:21:02;;;;;;;17.23;4.70;;;;;;;;;;4886439;29;20493;-94
2023/04/05 01:23:42;;;;;;;9.75;4.32;;;;;;;;;;4881476;29;20037;-95
2023/04/05 01:26:36;;;;;;;9.80;4.60;;;;;;;;;;4901148;29;20525;-93
2023/04/05 01:29:09;;;;;;;8.75;3.97;;;;;;;;;;4908775;29;20494;-94
2023/04/05 01:31:42;;;;;;;9.57;3.97;;;;;;;;;;4896546;29;20037;-94
2023/04/05 01:34:11;;;;;;;13.27;5.15;;;;;;;;;;4909566;29;20523;-95
2023/04/05 01:36:41;;;;;;;13.75;4.90;;;;;;;;;;4915542;29;20099;-95
2023/04/05 01:39:20;;;;;;;12.60;5.35;;;;;;;;;;4905501;29;20122;-95
2023/04/05 01:41:55;;;;;;;10.68;4.63;;;;;;;;;;4916192;29;20032;-95
2023/04/05 01:44:21;;;;;;;16.10;4.80;;;;;;;;;;4898249;29;20036;-95
2023/04/05 01:46:48;;;;;;;14.32;5.57;;;;;;;;;;4900740;29;20482;-94
2023/04/05 01:49:18;;;;;;;13.07;5.15;;;;;;;;;;4925537;29;20544;-94
2023/04/05 01:51:44;;;;;;;12.98;4.63;;;;;;;;;;4904190;29;20069;-94
2023/04/05 01:54:14;;;;;;;15.00;5.47;;;;;;;;;;4903763;29;20099;-94
2023/04/05 01:56:40;;;;;;;14.68;4.90;;;;;;;;;;4904699;29;20496;-94
2023/04/05 01:59:06;;;;;;;11.85;4.40;;;;;;;;;;4888414;29;20342;-93
2023/04/05 02:01:33;;;;;;;11.55;4.60;;;;;;;;;;4896858;29;20060;-94
2023/04/05 02:04:00;;;;;;;12.55;5.40;;;;;;;;;;4885010;29;20497;-94
2023/04/05 02:06:31;;;;;;;12.18;4.57;;;;;;;;;;4889948;29;20404;-95
2023/04/05 02:08:57;;;;;;;10.75;4.85;;;;;;;;;;4902569;29;20486;-94
2023/04/05 02:11:23;;;;;;;13.07;4.90;;;;;;;;;;4904566;29;20039;-94
2023/04/05 02:14:09;;;;;;;9.05;4.30;;;;;;;;;;4891890;29;20052;-95
2023/04/05 02:16:41;;;;;;;11.40;5.10;;;;;;;;;;4904842;29;20036;-94
2023/04/05 02:19:10;;;;;;;9.43;4.32;;;;;;;;;;4901437;29;20119;-95
2023/04/05 02:21:36;;;;;;;13.15;4.32;;;;;;;;;;4886736;29;20039;-94
2023/04/05 02:24:05;;;;;;;8.63;4.50;;;;;;;;;;4891867;29;20039;-95
2023/04/05 02:26:34;;;;;;;9.25;4.78;;;;;;;;;;4884604;29;20056;-95
2023/04/05 02:29:00;;;;;;;9.75;4.32;;;;;;;;;;4890158;29;20040;-95
2023/04/05 02:31:26;;;;;;;9.90;4.38;;;;;;;;;;4906940;29;20035;-95
2023/04/05 02:33:59;;;;;;;11.40;5.13;;;;;;;;;;4896627;28;20049;-94
2023/04/05 02:36:35;;;;;;;11.15;5.53;;;;;;;;;;4887035;29;20039;-94
2023/04/05 02:39:07;;;;;;;15.40;5.50;;;;;;;;;;4878987;29;20036;-94
2023/04/05 02:41:41;;;;;;;13.93;4.43;;;;;;;;;;4886369;29;20089;-94
2023/04/05 02:44:08;;;;;;;10.27;4.82;;;;;;;;;;4899755;29;20061;-94
2023/04/05 02:46:34;;;;;;;14.88;4.30;;;;;;;;;;4904357;29;20088;-94
2023/04/05 02:49:00;;;;;;;8.85;4.25;;;;;;;;;;4881243;29;20484;-95
2023/04/05 02:51:45;;;;;;;10.45;4.53;;;;;;;;;;4873812;29;20044;-95
2023/04/05 02:54:11;;;;;;;10.18;4.40;;;;;;;;;;4894810;29;20104;-95
2023/04/05 02:56:37;;;;;;;14.60;4.75;;;;;;;;;;4916059;29;20033;-94
2023/04/05 02:59:17;;;;;;;11.90;4.57;;;;;;;;;;4899877;29;20029;-94
2023/04/05 03:01:43;;;;;;;9.75;4.15;;;;;;;;;;4885250;29;20039;-94
2023/04/05 03:04:12;;;;;;;10.07;4.95;;;;;;;;;;4878361;29;20071;-94
2023/04/05 03:06:43;;;;;;;18.88;4.78;;;;;;;;;;4903492;29;20421;-94
2023/04/05 03:09:10;;;;;;;15.52;4.95;;;;;;;;;;4897468;29;20061;-94
2023/04/05 03:11:37;;;;;;;10.52;4.68;;;;;;;;;;4895124;29;20094;-94
2023/04/05 03:14:03;;;;;;;11.20;4.85;;;;;;;;;;4900798;29;20029;-95
2023/04/05 03:16:41;;;;;;;;;;;;;;;;;;;;;
2023/04/05 03:19:08;;;;;;;11.77;4.93;;;;;;;;;;4904984;29;20533;-95
2023/04/05 03:21:38;;;;;;;16.52;5.15;;;;;;;;;;4882714;29;20028;-95
2023/04/05 03:24:05;;;;;;;13.55;5.47;;;;;;;;;;4881640;29;20033;-95
2023/04/05 03:26:34;;;;;;;12.82;5.78;;;;;;;;;;4881796;29;20029;-94
2023/04/05 03:29:00;;;;;;;16.73;6.05;;;;;;;;;;4893122;29;20069;-95
2023/04/05 03:31:29;;;;;;;15.77;5.75;;;;;;;;;;4899099;29;20036;-94
2023/04/05 03:33:56;;;;;;;9.52;4.80;;;;;;;;;;4896940;29;20421;-94
2023/04/05 03:36:23;;;;;;;16.55;5.57;;;;;;;;;;4883083;29;20056;-94
2023/04/05 03:38:55;;;;;;;16.92;5.65;;;;;;;;;;4899497;29;20486;-93
2023/04/05 03:41:24;;;;;;;14.93;6.03;;;;;;;;;;4880514;29;20045;-94
2023/04/05 03:43:51;;;;;;;24.23;5.82;;;;;;;;;;4883189;29;20041;-94
2023/04/05 03:46:17;;;;;;;9.93;5.05;;;;;;;;;;4882907;29;20033;-95
2023/04/05 03:48:47;;;;;;;11.38;6.18;;;;;;;;;;4900620;29;20762;-95
2023/04/05 03:51:13;;;;;;;12.85;5.82;;;;;;;;;;4882662;29;20036;-95
2023/04/05 03:53:39;;;;;;;11.80;6.30;;;;;;;;;;4889297;29;20041;-95
2023/04/05 03:56:11;;;;;;;17.90;6.75;;;;;;;;;;4908341;29;20494;-94
2023/04/05 03:58:48;;;;;;;21.73;7.13;;;;;;;;;;4890261;29;20141;-95
2023/04/05 04:01:14;;;;;;;16.98;7.35;;;;;;;;;;4887628;29;20129;-95
2023/04/05 04:04:10;;;;;;;23.48;7.80;;;;;;;;;;4900155;29;20036;-95
2023/04/05 04:06:36;;;;;;;18.73;7.00;;;;;;;;;;4914079;29;20036;-94
2023/04/05 04:09:05;;;;;;;23.08;8.80;;;;;;;;;;4885942;29;20773;-95
2023/04/05 04:11:31;;;;;;;17.38;7.93;;;;;;;;;;4890339;29;20036;-94
2023/04/05 04:13:57;;;;;;;17.25;8.20;;;;;;;;;;4890411;29;20037;-94
2023/04/05 04:16:24;;;;;;;25.42;8.73;;;;;;;;;;4887318;29;20040;-95
2023/04/05 04:18:53;;;;;;;21.77;10.02;;;;;;;;;;4918417;29;20025;-95
2023/04/05 04:21:23;;;;;;;21.75;8.82;;;;;;;;;;4885295;29;20048;-95
2023/04/05 04:24:06;;;;;;;20.70;9.32;;;;;;;;;;4892980;29;20037;-95
2023/04/05 04:26:36;;;;;;;22.40;9.68;;;;;;;;;;4886519;29;20120;-95
2023/04/05 04:29:05;;;;;;;25.38;9.75;;;;;;;;;;4903621;29;20043;-91
2023/04/05 04:31:37;;;;;;;25.65;10.57;;;;;;;;;;4898541;29;20029;-96
2023/04/05 04:34:24;;;;;;;19.55;8.85;;;;;;;;;;4905295;29;21302;-95
2023/04/05 04:36:59;;;;;;;30.70;9.60;;;;;;;;;;4904922;29;20065;-94
2023/04/05 04:39:26;;;;;;;20.30;8.68;;;;;;;;;;4908934;29;20065;-94
2023/04/05 04:41:54;;;;;;;19.80;9.15;;;;;;;;;;4905644;29;20052;-94
2023/04/05 04:44:27;;;;;;;19.88;9.05;;;;;;;;;;4903446;29;20024;-93
2023/04/05 04:46:53;;;;;;;27.77;8.85;;;;;;;;;;4888987;29;20127;-94
2023/04/05 04:49:20;;;;;;;19.50;8.90;;;;;;;;;;4892334;29;20592;-95
2023/04/05 04:51:47;;;;;;;22.65;8.70;;;;;;;;;;4885614;29;20092;-95
2023/04/05 04:54:22;;;;;;;23.58;9.65;;;;;;;;;;4883167;29;20054;-93
2023/04/05 04:56:48;;;;;;;20.80;9.02;;;;;;;;;;4887181;29;20043;-95
2023/04/05 04:59:14;;;;;;;21.17;9.40;;;;;;;;;;4886712;29;20044;-94
2023/04/05 05:01:44;;;;;;;21.15;9.27;;;;;;;;;;4904323;29;20048;-95
2023/04/05 05:04:25;;;;;;;25.70;9.60;;;;;;;;;;4891414;29;20104;-96
2023/04/05 05:06:54;;;;;;;20.38;8.82;;;;;;;;;;4896521;29;20548;-95
2023/04/05 05:09:21;;;;;;;25.00;10.00;;;;;;;;;;4903634;29;20049;-95
2023/04/05 05:11:47;;;;;;;28.08;9.05;;;;;;;;;;4903284;29;20056;-94
2023/04/05 05:14:19;;;;;;;36.63;10.38;;;;;;;;;;4885399;29;20037;-93
2023/04/05 05:17:05;;;;;;;21.63;9.38;;;;;;;;;;4899251;29;20037;-95
2023/04/05 05:19:31;;;;;;;19.92;9.45;;;;;;;;;;4881572;29;20807;-93
2023/04/05 05:21:57;;;;;;;29.85;10.02;;;;;;;;;;4886749;29;20401;-94
2023/04/05 05:24:24;;;;;;;29.48;11.05;;;;;;;;;;4902688;29;20036;-95
2023/04/05 05:26:50;;;;;;;32.50;12.48;;;;;;;;;;4876031;29;20112;-94
2023/04/05 05:29:19;;;;;;;34.75;11.75;;;;;;;;;;4902074;29;20264;-93
2023/04/05 05:31:50;;;;;;;31.73;10.82;;;;;;;;;;4902457;29;20048;-94
2023/04/05 05:34:24;;;;;;;29.60;12.10;;;;;;;;;;4895449;29;20113;-94
2023/04/05 05:36:53;;;;;;;30.83;12.38;;;;;;;;;;4911830;29;20477;-95
2023/04/05 05:39:20;;;;;;;26.95;11.52;;;;;;;;;;4893922;29;20028;-94
2023/04/05 05:41:47;;;;;;;31.50;13.20;;;;;;;;;;4894932;29;20044;-95
2023/04/05 05:44:13;;;;;;;26.52;11.95;;;;;;;;;;4885431;29;20509;-94
2023/04/05 05:46:39;;;;;;;27.80;12.77;;;;;;;;;;4901118;29;20033;-94
2023/04/05 05:49:06;;;;;;;34.67;13.57;;;;;;;;;;4888782;29;20032;-94
2023/04/05 05:51:32;;;;;;;35.40;12.80;;;;;;;;;;4884819;29;20036;-94
2023/04/05 05:53:58;;;;;;;28.63;13.10;;;;;;;;;;4881492;29;20036;-93
2023/04/05 05:56:24;;;;;;;30.67;13.70;;;;;;;;;;4902152;29;20047;-95
2023/04/05 05:58:58;;;;;;;26.60;12.55;;;;;;;;;;4882616;29;20448;-95
2023/04/05 06:01:26;;;;;;;33.95;14.00;;;;;;;;;;4894862;29;20148;-94
2023/04/05 06:03:57;;;;;;;35.63;13.32;;;;;;;;;;4895409;29;20033;-95
2023/04/05 06:06:23;;;;;;;32.40;14.02;;;;;;;;;;4880976;29;20033;-95
2023/04/05 06:08:56;;;;;;;37.20;13.90;;;;;;;;;;4891278;29;20065;-95
2023/04/05 06:11:26;;;;;;;32.28;13.32;;;;;;;;;;4893816;29;20105;-95
2023/04/05 06:13:55;;;;;;;27.65;12.43;;;;;;;;;;4898223;29;20397;-94
2023/04/05 06:16:24;;;;;;;32.60;13.18;;;;;;;;;;4884765;29;20048;-95
2023/04/05 06:18:54;;;;;;;28.17;11.90;;;;;;;;;;4880059;29;20068;-94
2023/04/05 06:21:21;;;;;;;24.00;10.77;;;;;;;;;;4886174;29;20093;-94
2023/04/05 06:23:49;;;;;;;29.63;10.48;;;;;;;;;;4897779;29;20033;-94
2023/04/05 06:26:19;;;;;;;23.98;9.73;;;;;;;;;;4896743;29;20048;-96
2023/04/05 06:28:56;;;;;;;19.20;8.38;;;;;;;;;;4900187;29;20043;-95
2023/04/05 06:31:35;;;;;;;24.45;8.80;;;;;;;;;;4900475;29;20044;-95
2023/04/05 06:34:08;;;;;;;18.77;8.50;;;;;;;;;;4901293;29;20036;-94
2023/04/05 06:36:36;;;;;;;17.60;8.23;;;;;;;;;;4915729;29;20520;-95
2023/04/05 06:39:02;;;;;;;16.27;8.88;;;;;;;;;;4898269;29;20624;-94
2023/04/05 06:41:31;;;;;;;17.23;8.30;;;;;;;;;;4892217;29;20024;-95
2023/04/05 06:44:04;;;;;;;20.33;8.15;;;;;;;;;;4888944;29;20052;-95
2023/04/05 06:46:39;;;;;;;16.48;6.97;;;;;;;;;;4901362;29;20445;-95
2023/04/05 06:49:05;;;;;;;21.30;8.40;;;;;;;;;;4900865;29;20060;-93
2023/04/05 06:51:34;;;;;;;13.35;7.38;;;;;;;;;;4899952;29;20129;-94
2023/04/05 06:54:16;;;;;;;16.80;8.32;;;;;;;;;;4883771;29;20045;-95
2023/04/05 06:56:44;;;;;;;21.08;8.27;;;;;;;;;;4892810;29;20045;-95
2023/04/05 06:59:11;;;;;;;16.30;7.32;;;;;;;;;;4887817;29;20044;-95
2023/04/05 07:01:37;;;;;;;12.85;7.55;;;;;;;;;;4886643;29;20121;-94
2023/04/05 07:04:06;;;;;;;12.48;7.22;;;;;;;;;;4884489;29;20029;-95
2023/04/05 07:06:40;;;;;;;11.05;7.18;;;;;;;;;;4902271;29;20046;-95
2023/04/05 07:09:06;;;;;;;15.43;7.88;;;;;;;;;;4909514;29;20044;-95
2023/04/05 07:11:35;;;;;;;15.73;7.35;;;;;;;;;;4892814;29;20441;-94
2023/04/05 07:14:01;;;;;;;21.77;7.57;;;;;;;;;;4892484;29;20509;-94
2023/04/05 07:16:35;;;;;;;15.50;7.68;;;;;;;;;;4891850;29;20049;-94
2023/04/05 07:19:10;;;;;;;19.98;8.23;;;;;;;;;;4903768;29;20048;-94
2023/04/05 07:21:42;;;;;;;15.43;7.38;;;;;;;;;;4899310;29;20037;-94
2023/04/05 07:24:11;;;;;;;16.73;7.60;;;;;;;;;;4902729;29;20032;-94
2023/04/05 07:26:37;;;;;;;13.57;6.80;;;;;;;;;;4878454;29;20052;-94
2023/04/05 07:29:07;;;;;;;14.15;7.15;;;;;;;;;;4884334;29;20061;-95
2023/04/05 07:31:39;;;;;;;14.63;6.93;;;;;;;;;;4902473;29;20050;-95
2023/04/05 07:34:14;;;;;;;13.10;7.22;;;;;;;;;;4888379;29;20017;-95
2023/04/05 07:36:59;;;;;;;13.98;7.93;;;;;;;;;;4905116;29;20037;-94
2023/04/05 07:39:50;;;;;;;13.45;7.20;;;;;;;;;;4892519;29;20060;-95
2023/04/05 07:42:32;;;;;;;11.68;7.30;;;;;;;;;;4904238;29;20063;-95
2023/04/05 07:45:05;;;;;;;11.95;7.00;;;;;;;;;;4902247;29;20061;-95
2023/04/05 07:47:34;;;;;;;14.13;7.57;;;;;;;;;;4902168;29;20048;-95
2023/04/05 07:50:15;;;;;;;14.32;7.75;;;;;;;;;;4898602;29;20045;-95
2023/04/05 07:52:51;;;;;;;11.77;7.15;;;;;;;;;;4884391;29;20703;-94
2023/04/05 07:55:28;;;;;;;14.13;7.63;;;;;;;;;;4882902;29;20036;-94
2023/04/05 08:01:00;;;;;;;17.35;8.23;;;;;;;;;;4840497;29;20041;-94
2023/04/05 08:03:51;;;;;;;15.82;7.72;;;;;;;;;;4893215;29;20571;-95
2023/04/05 08:09:12;;;;;;;14.00;7.97;;;;;;;;;;4907029;29;20043;-95
2023/04/05 08:12:17;;;;;;;12.40;7.63;;;;;;;;;;4866642;29;20057;-94
2023/04/05 08:14:49;;;;;;;18.95;7.68;;;;;;;;;;4890426;29;20164;-94
2023/04/05 08:17:25;;;;;;;20.38;6.85;;;;;;;;;;4903940;29;20049;-95
2023/04/05 08:19:52;;;;;;;15.60;7.05;;;;;;;;;;4890047;29;20053;-95
2023/04/05 08:25:20;;;;;;;15.98;7.00;;;;;;;;;;4851449;29;20037;-95
2023/04/05 08:28:30;;;;;;;14.88;7.95;;;;;;;;;;4906609;29;20066;-95
2023/04/05 08:31:02;;;;;;;12.57;6.85;;;;;;;;;;4907156;29;20032;-95
2023/04/05 08:33:55;;;;;;;16.75;6.55;;;;;;;;;;4913401;29;20657;-95
2023/04/05 08:36:47;;;;;;;20.85;6.78;;;;;;;;;;4883232;29;20059;-88
2023/04/05 08:39:41;;;;;;;10.23;6.40;;;;;;;;;;4886557;29;20076;-88
2023/04/05 08:42:17;;;;;;;15.50;6.43;;;;;;;;;;4886338;29;20025;-88
2023/04/05 08:44:51;;;;;;;12.27;6.00;;;;;;;;;;4886641;29;20025;-87
2023/04/05 08:47:40;;;;;;;9.23;5.45;;;;;;;;;;4873365;29;20041;-89
2023/04/05 08:50:14;;;;;;;12.80;6.30;;;;;;;;;;4872616;29;20025;-88
2023/04/05 08:55:53;;;;;;;7.80;5.43;;;;;;;;;;4887446;29;20047;-88
2023/04/05 08:58:35;;;;;;;14.68;6.28;;;;;;;;;;4886563;29;20566;-89
2023/04/05 09:01:09;;;;;;;14.73;6.18;;;;;;;;;;4872229;29;20025;-88
2023/04/05 09:03:57;;;;;;;11.93;5.55;;;;;;;;;;4888028;29;20052;-88
2023/04/05 09:06:39;;;;;;;9.73;5.13;;;;;;;;;;4880039;29;20045;-89
2023/04/05 09:09:38;;;;;;;17.33;5.85;;;;;;;;;;4889874;29;20148;-89
2023/04/05 09:12:10;;;;;;;10.13;4.78;;;;;;;;;;4857285;29;20115;-89
2023/04/05 09:15:26;;;;;;;12.20;5.97;;;;;;;;;;4914559;29;20056;-90
2023/04/05 09:24:02;;;;;;;7.15;4.75;;;;;;;;;;4770386;30;20782;-90
2023/04/05 09:26:35;;;;;;;8.68;5.13;;;;;;;;;;4819420;29;20030;-87
2023/04/05 09:29:15;;;;;;;10.90;5.35;;;;;;;;;;4876951;29;20021;-90
2023/04/05 09:34:54;;;;;;;9.90;5.60;;;;;;;;;;4896185;29;20119;-89
2023/04/05 09:37:44;;;;;;;9.07;4.85;;;;;;;;;;4884914;29;20029;-88
2023/04/05 09:43:26;;;;;;;9.68;5.18;;;;;;;;;;4911977;29;20168;-88
2023/04/05 17:09:03;;;;;;;7.00;3.92;;;;;;;;;;4882155;29;20065;-94
2023/04/05 17:11:30;;;;;;;6.93;4.35;;;;;;;;;;4845174;29;20340;-92
2023/04/05 17:13:58;;;;;;;8.65;4.65;;;;;;;;;;4882186;29;20052;-94
2023/04/05 17:16:26;;;;;;;11.18;4.60;;;;;;;;;;4866694;29;20033;-95
2023/04/05 17:18:55;;;;;;;9.95;4.50;;;;;;;;;;4882283;29;20029;-94
2023/04/05 17:21:25;;;;;;;6.35;4.15;;;;;;;;;;4868082;29;20494;-94
2023/04/05 17:23:51;;;;;;;8.88;4.22;;;;;;;;;;4884785;29;20032;-94
2023/04/05 17:26:22;;;;;;;7.97;3.88;;;;;;;;;;4881662;29;20030;-95
2023/04/05 17:28:52;;;;;;;11.68;4.38;;;;;;;;;;4882468;29;20057;-94
2023/04/05 17:31:19;;;;;;;9.48;4.00;;;;;;;;;;4882963;29;20276;-94
2023/04/05 17:33:47;;;;;;;9.02;4.63;;;;;;;;;;4883812;29;20040;-94
2023/04/05 17:36:19;;;;;;;14.05;5.68;;;;;;;;;;4882950;29;20057;-94
2023/04/05 17:38:46;;;;;;;8.38;4.60;;;;;;;;;;4864684;29;20079;-93
2023/04/05 17:41:14;;;;;;;9.75;5.03;;;;;;;;;;4843664;29;20042;-94
2023/04/05 17:43:56;;;;;;;9.82;4.80;;;;;;;;;;4884152;29;20104;-95
2023/04/05 17:46:26;;;;;;;11.82;4.70;;;;;;;;;;4850655;29;20037;-94
2023/04/05 17:48:54;;;;;;;9.48;4.90;;;;;;;;;;4848576;29;20025;-94
2023/04/05 17:51:20;;;;;;;11.20;4.63;;;;;;;;;;4867613;29;20030;-95
2023/04/05 17:53:47;;;;;;;12.15;5.18;;;;;;;;;;4844392;29;20036;-93
2023/04/05 17:56:14;;;;;;;8.63;4.78;;;;;;;;;;4846226;29;20636;-94
2023/04/05 17:58:43;;;;;;;7.32;4.55;;;;;;;;;;4850496;29;20036;-93
2023/04/05 18:01:13;;;;;;;11.98;5.90;;;;;;;;;;4849580;29;20514;-94
2023/04/05 18:03:40;;;;;;;11.02;4.97;;;;;;;;;;4871845;29;20101;-94
2023/04/05 18:06:07;;;;;;;12.30;5.18;;;;;;;;;;4861908;29;20045;-93
2023/04/05 18:08:35;;;;;;;15.15;5.57;;;;;;;;;;4856466;29;20053;-94
2023/04/05 18:11:09;;;;;;;15.73;5.75;;;;;;;;;;4878386;29;20041;-95
2023/04/05 18:13:38;;;;;;;11.18;5.28;;;;;;;;;;4868599;29;20124;-96
2023/04/05 18:16:11;;;;;;;13.45;5.65;;;;;;;;;;4863588;29;20049;-94
2023/04/05 18:18:39;;;;;;;13.45;5.40;;;;;;;;;;4882343;29;20187;-94
2023/04/05 18:21:06;;;;;;;15.27;5.82;;;;;;;;;;4864040;29;20127;-95
2023/04/05 18:23:32;;;;;;;11.93;5.28;;;;;;;;;;4874960;29;20110;-94
2023/04/05 18:26:04;;;;;;;10.60;5.78;;;;;;;;;;4861668;29;20038;-94
2023/04/05 18:28:34;;;;;;;9.70;5.07;;;;;;;;;;4862309;29;20033;-95
2023/04/05 18:31:01;;;;;;;9.43;5.40;;;;;;;;;;4873353;29;20534;-94
2023/04/05 18:33:27;;;;;;;10.18;5.47;;;;;;;;;;4876917;29;20432;-93
2023/04/05 18:35:53;;;;;;;19.50;6.50;;;;;;;;;;4863196;29;20045;-94
2023/04/05 18:38:24;;;;;;;23.30;9.02;;;;;;;;;;4856237;29;20767;-93
2023/04/05 18:40:58;;;;;;;26.30;9.82;;;;;;;;;;4857055;29;20057;-92
2023/04/05 18:43:24;;;;;;;28.08;9.40;;;;;;;;;;4880571;29;20049;-93
2023/04/05 18:45:54;;;;;;;19.42;6.07;;;;;;;;;;4874706;29;20097;-93
2023/04/05 18:48:23;;;;;;;11.07;5.65;;;;;;;;;;4876470;29;20034;-90
2023/04/05 18:50:52;;;;;;;15.07;5.75;;;;;;;;;;4871040;29;20506;-91
2023/04/05 18:53:19;;;;;;;13.30;5.90;;;;;;;;;;4861185;29;20040;-89
2023/04/05 18:55:45;;;;;;;13.60;5.88;;;;;;;;;;4857099;29;20105;-89
2023/04/05 18:58:11;;;;;;;14.20;5.18;;;;;;;;;;4856080;29;20026;-90
2023/04/05 19:00:57;;;;;;;12.35;5.63;;;;;;;;;;4859618;29;20106;-90
2023/04/05 19:03:23;;;;;;;16.63;5.70;;;;;;;;;;4873164;29;20033;-89
2023/04/05 19:05:52;;;;;;;12.95;5.57;;;;;;;;;;4876511;29;20040;-89
2023/04/05 19:08:19;;;;;;;17.95;6.35;;;;;;;;;;4857805;29;20111;-91
2023/04/05 19:10:46;;;;;;;16.58;6.10;;;;;;;;;;4856682;29;20089;-91
2023/04/05 19:13:37;;;;;;;12.05;6.20;;;;;;;;;;4862704;29;20041;-91
2023/04/05 19:16:09;;;;;;;13.82;6.22;;;;;;;;;;4850431;29;20554;-91
2023/04/05 19:18:36;;;;;;;16.17;5.80;;;;;;;;;;4875998;29;20048;-91
2023/04/05 19:21:07;;;;;;;12.45;5.88;;;;;;;;;;4858949;29;21869;-91
2023/04/05 19:23:42;;;;;;;11.52;5.53;;;;;;;;;;4855703;29;20041;-91
2023/04/05 19:26:40;;;;;;;10.68;5.68;;;;;;;;;;4862588;29;20037;-96
2023/04/05 19:29:13;;;;;;;9.32;5.75;;;;;;;;;;4891164;29;20025;-95
2023/04/05 19:35:03;;;;;;;10.35;5.25;;;;;;;;;;4891332;23;20057;-93
2023/04/05 19:37:29;;;;;;;16.95;5.68;;;;;;;;;;4882146;29;20049;-93
2023/04/05 19:39:56;;;;;;;10.38;5.28;;;;;;;;;;4870587;29;20045;-93
2023/04/05 19:42:22;;;;;;;11.45;5.72;;;;;;;;;;4861469;29;20036;-93
2023/04/05 19:44:56;;;;;;;21.40;6.50;;;;;;;;;;4884112;29;20498;-92
2023/04/05 19:47:24;;;;;;;13.07;7.27;;;;;;;;;;4873627;29;20026;-93
2023/04/05 19:49:59;;;;;;;16.05;6.28;;;;;;;;;;4871284;29;20029;-93
2023/04/05 19:52:33;;;;;;;14.77;7.13;;;;;;;;;;4886554;29;20075;-93
2023/04/05 19:55:00;;;;;;;13.25;5.95;;;;;;;;;;4890081;29;20132;-93
2023/04/05 19:57:26;;;;;;;12.90;6.50;;;;;;;;;;4882451;29;20048;-92
2023/04/05 19:59:53;;;;;;;12.32;6.15;;;;;;;;;;4868879;29;20069;-93
2023/04/05 20:02:31;;;;;;;13.43;6.50;;;;;;;;;;4868848;29;20379;-94
2023/04/05 20:04:57;;;;;;;15.70;6.80;;;;;;;;;;4886723;29;20526;-93
2023/04/05 20:07:33;;;;;;;13.45;6.82;;;;;;;;;;4880220;29;20033;-94
2023/04/05 20:10:02;;;;;;;17.17;6.82;;;;;;;;;;4878278;29;20362;-93
2023/04/05 20:12:28;;;;;;;18.77;6.53;;;;;;;;;;4867530;29;20041;-94
2023/04/05 20:14:58;;;;;;;15.38;6.55;;;;;;;;;;4862298;29;20057;-93
2023/04/05 20:17:27;;;;;;;12.80;6.55;;;;;;;;;;4878979;29;20029;-93
2023/04/05 20:19:55;;;;;;;11.70;6.30;;;;;;;;;;4864159;29;20101;-93
2023/04/05 20:22:22;;;;;;;13.85;6.60;;;;;;;;;;4876773;29;20498;-93
2023/04/05 20:24:54;;;;;;;17.17;8.30;;;;;;;;;;4860233;29;20041;-93
2023/04/05 20:27:20;;;;;;;16.77;6.93;;;;;;;;;;4867631;29;20603;-93
2023/04/05 20:29:46;;;;;;;14.55;6.93;;;;;;;;;;4877783;29;20066;-93
2023/04/05 20:32:43;;;;;;;14.20;7.00;;;;;;;;;;4863995;29;20072;-93
2023/04/05 20:35:09;;;;;;;;;;;;;;;;;;4884012;29;20076;-93
2023/04/05 20:37:35;;;;;;;14.27;6.07;;;;;;;;;;4877403;29;20346;-94
2023/04/05 20:40:02;;;;;;;15.07;6.90;;;;;;;;;;4869318;29;20048;-93
2023/04/05 20:42:41;;;;;;;11.57;6.00;;;;;;;;;;4868801;29;20069;-94
2023/04/05 20:45:14;;;;;;;14.10;6.13;;;;;;;;;;4883492;29;20078;-94
2023/04/05 20:47:40;;;;;;;17.73;6.82;;;;;;;;;;4869640;29;20036;-94
2023/04/05 20:50:06;;;;;;;12.75;7.20;;;;;;;;;;4870956;29;20132;-94
2023/04/05 20:52:32;;;;;;;15.32;7.03;;;;;;;;;;4879670;29;20047;-91
2023/04/05 20:54:59;;;;;;;22.27;7.00;;;;;;;;;;4876292;29;20041;-92
2023/04/05 20:57:25;;;;;;;14.85;6.35;;;;;;;;;;4864830;29;20481;-92
2023/04/05 20:59:54;;;;;;;11.68;6.28;;;;;;;;;;4863600;29;20044;-92
2023/04/05 21:02:21;;;;;;;16.35;6.50;;;;;;;;;;4870806;29;20083;-92
2023/04/05 21:04:49;;;;;;;12.95;5.72;;;;;;;;;;4882059;29;20033;-92
2023/04/05 21:07:16;;;;;;;11.48;5.55;;;;;;;;;;4869414;29;20044;-92
2023/04/05 21:09:43;;;;;;;11.48;4.90;;;;;;;;;;4871476;29;20028;-93
2023/04/05 21:12:10;;;;;;;11.85;5.70;;;;;;;;;;4860832;29;20078;-93
2023/04/05 21:14:36;;;;;;;13.90;6.13;;;;;;;;;;4868891;29;20029;-93
2023/04/05 21:17:03;;;;;;;14.57;6.28;;;;;;;;;;4875647;29;20100;-93
2023/04/05 21:19:29;;;;;;;10.63;5.40;;;;;;;;;;4868362;29;20037;-93
2023/04/05 21:21:55;;;;;;;12.15;5.90;;;;;;;;;;4876175;29;20039;-93
2023/04/05 21:24:22;;;;;;;10.65;5.28;;;;;;;;;;4881693;29;20337;-93
2023/04/05 21:26:52;;;;;;;10.68;5.57;;;;;;;;;;4871935;29;20025;-93
2023/04/05 21:29:18;;;;;;;11.13;5.50;;;;;;;;;;4876831;29;20070;-95
2023/04/05 21:31:44;;;;;;;11.07;5.20;;;;;;;;;;4875061;29;20307;-91
2023/04/05 21:34:12;;;;;;;11.68;5.63;;;;;;;;;;4876560;29;20037;-91
2023/04/05 21:36:46;;;;;;;10.43;5.65;;;;;;;;;;4865996;29;20157;-91
2023/04/05 21:39:12;;;;;;;11.57;5.18;;;;;;;;;;4877833;29;20033;-91
2023/04/05 21:41:38;;;;;;;11.43;6.00;;;;;;;;;;4858733;29;20040;-91
2023/04/05 21:44:04;;;;;;;8.70;4.80;;;;;;;;;;4862949;29;20075;-91
2023/04/05 21:46:32;;;;;;;9.98;5.60;;;;;;;;;;4858563;29;20041;-90
2023/04/05 21:48:58;;;;;;;13.15;5.78;;;;;;;;;;4879870;29;20021;-92
2023/04/05 21:51:25;;;;;;;10.60;5.32;;;;;;;;;;4877767;29;20413;-91
2023/04/05 21:53:51;;;;;;;12.07;6.00;;;;;;;;;;4866817;29;20064;-91
2023/04/05 21:56:17;;;;;;;10.63;6.00;;;;;;;;;;4882441;29;20033;-91
2023/04/05 21:58:47;;;;;;;8.60;5.13;;;;;;;;;;4868292;29;20101;-92
2023/04/05 22:01:14;;;;;;;10.20;5.28;;;;;;;;;;4863533;29;20381;-92
2023/04/05 22:03:40;;;;;;;11.43;5.93;;;;;;;;;;4871244;29;20044;-93
2023/04/05 22:06:06;;;;;;;9.73;5.38;;;;;;;;;;4864529;29;20128;-93
2023/04/05 22:08:33;;;;;;;9.90;5.70;;;;;;;;;;4880975;29;20052;-91
2023/04/05 22:10:59;;;;;;;18.17;6.65;;;;;;;;;;4860973;29;20025;-91
2023/04/05 22:13:32;;;;;;;11.45;5.75;;;;;;;;;;4876680;29;20040;-91
2023/04/05 22:15:58;;;;;;;10.05;5.80;;;;;;;;;;4862764;29;20083;-90
2023/04/05 22:18:28;;;;;;;11.90;5.68;;;;;;;;;;4880614;29;20040;-91
2023/04/05 22:20:54;;;;;;;14.07;5.95;;;;;;;;;;4877214;29;20128;-92
2023/04/05 22:23:21;;;;;;;11.75;6.13;;;;;;;;;;4862897;29;20025;-91
2023/04/05 22:26:07;;;;;;;14.13;5.82;;;;;;;;;;4879463;29;20033;-91
2023/04/05 22:28:33;;;;;;;12.77;5.65;;;;;;;;;;4878674;29;20025;-92
2023/04/05 22:30:59;;;;;;;12.90;6.28;;;;;;;;;;4871487;29;20945;-91
2023/04/05 22:33:26;;;;;;;11.73;6.80;;;;;;;;;;4865346;29;20494;-91
2023/04/05 22:35:59;;;;;;;11.32;5.97;;;;;;;;;;4876228;29;20042;-92
2023/04/05 22:38:32;;;;;;;12.95;6.10;;;;;;;;;;4876420;29;20037;-91
2023/04/05 22:40:58;;;;;;;12.80;5.90;;;;;;;;;;4864041;29;20059;-91
2023/04/05 22:43:24;;;;;;;15.50;6.20;;;;;;;;;;4863525;29;20041;-91
2023/04/05 22:45:50;;;;;;;17.25;6.30;;;;;;;;;;4874230;29;20083;-92
2023/04/05 22:48:17;;;;;;;12.20;6.32;;;;;;;;;;4867801;29;20131;-91